Terminal Aerodrome Forecast
Issued by NWS Sioux Falls, SD

Home | Current Version | Previous Version | Graphics & Text | Print | Product List | Glossary On
Versions: 1 2 3 4 5 6 7 8 9 10 11 12 13
000
FTUS43 KFSD 162300
TAFHON
TAF
KHON 162322Z 1700/1724 01012G17KT P6SM OVC020
     FM170700 36008KT P6SM SCT025 BKN200
     FM171200 02006KT P6SM SCT250
     FM171800 12007KT P6SM SCT200=

USA.gov is the U.S. government's official web portal to all federal, state and local government web resources and services.